createdAt,value
2022-08-23T00:00:16.141Z,101247.56
2022-08-23T00:02:45.743Z,101247.72
2022-08-23T00:05:15.252Z,101247.72
2022-08-23T00:07:44.231Z,101245.16
2022-08-23T00:10:14.872Z,101245.25
2022-08-23T00:12:46.645Z,101240.06
2022-08-23T00:15:17.368Z,101244.53
2022-08-23T00:17:47.413Z,101243.09
2022-08-23T00:20:18.424Z,101238.63
2022-08-23T00:22:48.062Z,101238.38
2022-08-23T00:25:18.700Z,101238.28
2022-08-23T00:27:48.519Z,101235.78
2022-08-23T00:30:19.397Z,101241.97
2022-08-23T00:32:49.827Z,101237.63
2022-08-23T00:35:26.872Z,101230.50
2022-08-23T00:38:30.419Z,101224.44
2022-08-23T00:40:45.543Z,101224.44
2022-08-23T00:43:49.517Z,101221.88
2022-08-23T00:46:49.940Z,101221.06
2022-08-23T00:49:21.157Z,101221.00
2022-08-23T00:52:08.839Z,101225.56
2022-08-23T00:54:39.902Z,101222.09
2022-08-23T00:57:12.103Z,101215.91
2022-08-23T01:00:11.707Z,101223.03
2022-08-23T01:02:40.631Z,101224.81
2022-08-23T01:05:25.827Z,101225.69
2022-08-23T01:08:02.529Z,101223.94
2022-08-23T01:10:43.167Z,101224.06
2022-08-23T01:13:23.397Z,101222.25
2022-08-23T01:16:11.293Z,101221.44
2022-08-23T01:18:43.374Z,101218.63
2022-08-23T01:21:17.057Z,101220.34
2022-08-23T01:25:22.765Z,101220.75
2022-08-23T01:27:57.578Z,101226.94
2022-08-23T01:30:28.517Z,101227.81
2022-08-23T01:33:03.564Z,101228.84
2022-08-23T01:35:42.337Z,101225.44
2022-08-23T01:38:15.170Z,101222.72
2022-08-23T01:40:43.698Z,101229.94
2022-08-23T01:43:14.095Z,101230.81
2022-08-23T01:45:43.053Z,101228.22
2022-08-23T01:48:20.637Z,101226.41
2022-08-23T01:50:48.808Z,101229.88
2022-08-23T01:53:16.942Z,101229.91
2022-08-23T01:55:58.122Z,101230.81
2022-08-23T01:58:40.720Z,101235.31
2022-08-23T02:01:11.920Z,101236.13
2022-08-23T02:03:39.766Z,101234.41
2022-08-23T02:06:14.817Z,101233.63
2022-08-23T02:09:03.988Z,101234.50
2022-08-23T02:11:46.125Z,101233.78
2022-08-23T02:14:21.189Z,101235.66
2022-08-23T02:17:04.501Z,101237.44
2022-08-23T02:19:37.330Z,101245.47
2022-08-23T02:22:08.249Z,101235.69
2022-08-23T02:24:54.057Z,101241.06
2022-08-23T02:27:25.880Z,101239.28
2022-08-23T02:30:02.041Z,101242.97
2022-08-23T02:32:31.558Z,101245.69
2022-08-23T02:35:05.117Z,101244.78
2022-08-23T02:37:39.298Z,101240.66
2022-08-23T02:40:08.554Z,101235.22
2022-08-23T02:42:40.345Z,101236.94
2022-08-23T02:45:13.592Z,101239.59
2022-08-23T02:48:02.571Z,101238.81
2022-08-23T02:50:45.139Z,101237.06
2022-08-23T02:53:12.997Z,101235.31
2022-08-23T02:55:45.823Z,101239.69
2022-08-23T02:58:21.642Z,101241.63
2022-08-23T03:00:53.245Z,101245.13
2022-08-23T03:03:23.945Z,101235.66
2022-08-23T03:05:51.528Z,101240.00
2022-08-23T03:08:23.219Z,101240.97
2022-08-23T03:10:52.935Z,101233.97
2022-08-23T03:13:21.516Z,101236.69
2022-08-23T03:15:50.891Z,101238.50
2022-08-23T03:18:18.559Z,101239.38
2022-08-23T03:20:52.283Z,101245.56
2022-08-23T03:23:19.746Z,101238.41
2022-08-23T03:25:47.419Z,101244.66
2022-08-23T03:28:22.480Z,101243.84
2022-08-23T03:30:50.541Z,101237.69
2022-08-23T03:33:18.529Z,101235.94
2022-08-23T03:35:47.932Z,101243.88
2022-08-23T03:38:16.495Z,101253.69
2022-08-23T03:40:44.727Z,101253.69
2022-08-23T03:43:17.941Z,101253.69
2022-08-23T03:45:45.464Z,101243.22
2022-08-23T03:48:15.561Z,101253.03
2022-08-23T03:50:43.310Z,101249.59
2022-08-23T03:53:12.248Z,101247.81
2022-08-23T03:55:45.588Z,101251.50
2022-08-23T03:58:18.309Z,101247.97
2022-08-23T04:00:46.100Z,101249.03
2022-08-23T04:03:16.741Z,101249.03
2022-08-23T04:06:03.773Z,101242.13
2022-08-23T04:08:34.791Z,101250.06
2022-08-23T04:11:05.137Z,101242.25
2022-08-23T04:13:36.836Z,101251.94
2022-08-23T04:16:07.496Z,101243.09
2022-08-23T04:18:35.250Z,101245.75
2022-08-23T04:21:10.329Z,101241.22
2022-08-23T04:23:42.639Z,101250.09
2022-08-23T04:26:14.401Z,101241.13
2022-08-23T04:28:43.117Z,101245.59
2022-08-23T04:31:11.091Z,101251.84
2022-08-23T04:33:44.250Z,101259.03
2022-08-23T04:36:15.714Z,101258.06
2022-08-23T04:38:43.617Z,101267.88
2022-08-23T04:41:34.128Z,101270.56
2022-08-23T04:44:01.856Z,101267.03
2022-08-23T04:46:33.623Z,101274.09
2022-08-23T04:49:02.281Z,101264.34
2022-08-23T04:51:32.795Z,101267.75
2022-08-23T04:54:00.084Z,101270.50
2022-08-23T04:56:59.705Z,101263.44
2022-08-23T04:59:27.198Z,101279.28
2022-08-23T05:01:54.516Z,101277.50
2022-08-23T05:04:26.554Z,101276.59
2022-08-23T05:06:54.014Z,101280.06
2022-08-23T05:09:22.036Z,101280.19
2022-08-23T05:11:51.616Z,101279.31
2022-08-23T05:14:19.727Z,101282.97
2022-08-23T05:16:50.146Z,101282.97
2022-08-23T05:19:19.447Z,101281.22
2022-08-23T05:21:47.965Z,101274.19
2022-08-23T05:24:16.461Z,101285.72
2022-08-23T05:26:46.663Z,101289.34
2022-08-23T05:29:14.074Z,101287.59
2022-08-23T05:31:56.287Z,101283.19
2022-08-23T05:34:26.037Z,101289.44
2022-08-23T05:36:56.631Z,101289.34
2022-08-23T05:39:36.487Z,101285.91
2022-08-23T05:42:12.544Z,101288.50
2022-08-23T05:44:40.038Z,101293.00
2022-08-23T05:47:12.126Z,101295.53
2022-08-23T05:49:56.504Z,101289.34
2022-08-23T05:52:27.674Z,101296.44
2022-08-23T05:54:56.116Z,101293.00
2022-08-23T05:57:38.663Z,101300.28
2022-08-23T06:00:16.106Z,101299.31
2022-08-23T06:02:47.036Z,101304.63
2022-08-23T06:05:16.647Z,101303.03
2022-08-23T06:07:48.493Z,101307.38
2022-08-23T06:10:24.522Z,101309.16
2022-08-23T06:13:03.528Z,101309.28
2022-08-23T06:15:32.437Z,101310.91
2022-08-23T06:18:02.882Z,101308.31
2022-08-23T06:20:34.396Z,101311.81
2022-08-23T06:23:08.673Z,101316.13
2022-08-23T06:25:42.677Z,101317.13
2022-08-23T06:28:15.273Z,101321.53
2022-08-23T06:30:43.857Z,101320.59
2022-08-23T06:33:14.081Z,101320.44
2022-08-23T06:35:41.897Z,101316.91
2022-08-23T06:38:13.385Z,101328.31
2022-08-23T06:40:54.306Z,101320.34
2022-08-23T06:43:30.571Z,101330.03
2022-08-23T06:46:23.766Z,101331.69
2022-08-23T06:48:54.138Z,101329.97
2022-08-23T06:51:36.492Z,101331.75
2022-08-23T06:54:20.952Z,101332.47
2022-08-23T06:56:52.519Z,101334.03
2022-08-23T06:59:28.655Z,101327.56
2022-08-23T07:02:28.123Z,101324.72
2022-08-23T07:04:58.510Z,101321.94
2022-08-23T07:07:44.798Z,101322.47
2022-08-23T07:10:16.053Z,101326.69
2022-08-23T07:12:44.511Z,101323.91
2022-08-23T07:15:16.632Z,101330.03
2022-08-23T07:17:45.481Z,101322.88
2022-08-23T07:20:16.036Z,101324.47
2022-08-23T07:22:45.709Z,101324.56
2022-08-23T07:25:17.207Z,101330.94
2022-08-23T07:27:49.293Z,101335.16
2022-08-23T07:30:24.906Z,101330.81
2022-08-23T07:32:52.462Z,101336.78
2022-08-23T07:35:22.591Z,101335.22
2022-08-23T07:37:56.758Z,101342.00
2022-08-23T07:40:30.532Z,101338.28
2022-08-23T07:43:04.456Z,101333.72
2022-08-23T07:45:39.201Z,101330.91
2022-08-23T07:48:10.725Z,101335.16
2022-08-23T07:51:07.467Z,101339.44
2022-08-23T07:53:38.133Z,101334.75
2022-08-23T07:56:10.208Z,101339.88
2022-08-23T07:58:58.922Z,101346.91
2022-08-23T08:01:56.713Z,101346.63
2022-08-23T08:04:29.544Z,101346.34
2022-08-23T08:07:18.349Z,101343.75
2022-08-23T08:09:49.665Z,101345.97
2022-08-23T08:12:17.933Z,101342.03
2022-08-23T08:14:52.169Z,101347.00
2022-08-23T08:17:29.348Z,101356.28
2022-08-23T08:20:15.897Z,101350.25
2022-08-23T08:22:59.188Z,101356.53
2022-08-23T08:25:48.211Z,101343.16
2022-08-23T08:28:18.798Z,101344.22
2022-08-23T08:30:48.978Z,101347.03
2022-08-23T08:33:16.802Z,101348.88
2022-08-23T08:35:56.185Z,101344.28
2022-08-23T08:38:38.736Z,101341.56
2022-08-23T08:41:20.715Z,101348.41
2022-08-23T08:43:56.510Z,101351.66
2022-08-23T08:46:39.040Z,101346.38
2022-08-23T08:49:14.324Z,101346.75
2022-08-23T08:51:57.502Z,101352.63
2022-08-23T08:54:26.119Z,101357.72
2022-08-23T08:57:02.397Z,101357.34
2022-08-23T08:59:59.283Z,101367.88
2022-08-23T09:02:36.390Z,101359.69
2022-08-23T09:05:16.985Z,101361.81
2022-08-23T09:08:04.268Z,101356.31
2022-08-23T09:11:08.365Z,101358.25
2022-08-23T09:13:56.237Z,101352.75
2022-08-23T09:16:36.937Z,101356.22
2022-08-23T09:19:05.032Z,101355.84
2022-08-23T09:21:55.021Z,101357.66
2022-08-23T09:24:23.275Z,101360.91
2022-08-23T09:27:20.524Z,101357.81
2022-08-23T09:29:58.741Z,101351.84
2022-08-23T09:32:43.428Z,101363.09
2022-08-23T09:35:25.179Z,101344.31
2022-08-23T09:38:16.713Z,101345.06
2022-08-23T09:40:51.483Z,101363.03
2022-08-23T09:43:26.482Z,101353.41
2022-08-23T09:46:02.136Z,101349.81
2022-08-23T09:48:40.719Z,101342.91
2022-08-23T09:51:34.968Z,101340.03
2022-08-23T09:54:11.910Z,101338.16
2022-08-23T09:56:48.367Z,101344.81
2022-08-23T09:59:27.449Z,101342.81
2022-08-23T10:02:06.291Z,101347.09
2022-08-23T10:04:47.176Z,101347.97
2022-08-23T10:07:30.303Z,101342.63
2022-08-23T10:10:17.810Z,101334.75
2022-08-23T10:12:49.098Z,101348.78
2022-08-23T10:15:21.471Z,101343.44
2022-08-23T10:18:43.314Z,101334.06
2022-08-23T10:22:00.288Z,101337.78
2022-08-23T10:25:21.530Z,101335.81
2022-08-23T10:28:42.550Z,101339.69
2022-08-23T10:31:38.468Z,101328.69
2022-08-23T10:34:41.539Z,101332.41
2022-08-23T10:37:40.221Z,101324.28
2022-08-23T10:40:23.360Z,101333.75
2022-08-23T10:43:02.324Z,101328.34
2022-08-23T10:45:35.380Z,101320.91
2022-08-23T10:48:32.672Z,101314.69
2022-08-23T10:51:11.982Z,101316.31
2022-08-23T10:53:56.451Z,101315.19
2022-08-23T10:56:28.981Z,101315.19
2022-08-23T10:59:24.391Z,101310.69
2022-08-23T11:02:02.180Z,101303.94
2022-08-23T11:04:59.742Z,101301.59
2022-08-23T11:07:41.481Z,101300.19
2022-08-23T11:10:26.580Z,101301.34
2022-08-23T11:13:06.669Z,101294.41
2022-08-23T11:15:49.122Z,101295.25
2022-08-23T11:18:44.551Z,101279.47
2022-08-23T11:21:34.944Z,101280.78
2022-08-23T11:24:06.445Z,101283.50
2022-08-23T11:26:41.719Z,101284.50
2022-08-23T11:29:28.496Z,101280.41
2022-08-23T11:32:38.253Z,101277.56
2022-08-23T11:35:43.215Z,101285.03
2022-08-23T11:38:17.306Z,101295.59
2022-08-23T11:40:57.879Z,101296.03
2022-08-23T11:43:42.993Z,101278.19
2022-08-23T11:46:27.386Z,101270.06
2022-08-23T11:49:14.619Z,101276.38
2022-08-23T11:52:08.627Z,101266.22
2022-08-23T11:54:42.210Z,101277.44
2022-08-23T11:57:21.156Z,101285.09
2022-08-23T12:00:02.595Z,101277.59
2022-08-23T12:02:42.357Z,101278.00
2022-08-23T12:05:18.420Z,101271.78
2022-08-23T12:07:55.956Z,101275.44
2022-08-23T12:10:44.048Z,101288.94
2022-08-23T12:13:23.269Z,101292.94
2022-08-23T12:16:17.907Z,101276.84
2022-08-23T12:18:58.023Z,101272.59
2022-08-23T12:21:32.942Z,101272.84
2022-08-23T12:24:14.500Z,101272.31
2022-08-23T12:26:47.594Z,101273.13
2022-08-23T12:29:17.760Z,101270.53
2022-08-23T12:31:58.934Z,101270.91
2022-08-23T12:34:40.363Z,101266.25
2022-08-23T12:37:13.045Z,101280.63
2022-08-23T12:39:50.848Z,101264.38
2022-08-23T12:42:29.631Z,101262.50
2022-08-23T12:45:06.563Z,101260.50
2022-08-23T12:47:46.079Z,101254.84
2022-08-23T12:50:15.018Z,101260.84
2022-08-23T12:52:42.839Z,101258.63
2022-08-23T12:55:19.675Z,101263.72
2022-08-23T12:58:02.183Z,101239.78
2022-08-23T13:00:39.089Z,101254.34
2022-08-23T13:03:38.703Z,101251.28
2022-08-23T13:06:11.949Z,101252.72
2022-08-23T13:08:41.240Z,101243.41
2022-08-23T13:11:10.478Z,101240.28
2022-08-23T13:13:40.872Z,101229.91
2022-08-23T13:16:47.275Z,101239.78
2022-08-23T13:19:34.549Z,101241.31
2022-08-23T13:22:20.566Z,101226.00
2022-08-23T13:25:28.163Z,101228.28
2022-08-23T13:28:26.214Z,101228.56
2022-08-23T13:31:08.999Z,101222.28
2022-08-23T13:33:40.995Z,101222.34
2022-08-23T13:36:16.710Z,101227.63
2022-08-23T13:38:47.468Z,101217.31
2022-08-23T13:41:38.645Z,101203.13
2022-08-23T13:44:19.074Z,101204.16
2022-08-23T13:46:48.233Z,101205.47
2022-08-23T13:49:24.862Z,101208.94
2022-08-23T13:54:50.943Z,101198.16
2022-08-23T13:57:22.775Z,101198.34
2022-08-23T13:59:54.486Z,101192.88
2022-08-23T14:02:24.195Z,101185.91
2022-08-23T14:04:54.654Z,101196.53
2022-08-23T14:07:21.888Z,101201.25
2022-08-23T14:09:55.313Z,101185.19
2022-08-23T14:12:28.163Z,101173.25
2022-08-23T14:15:13.691Z,101184.16
2022-08-23T14:17:56.652Z,101185.72
2022-08-23T14:20:43.768Z,101181.69
2022-08-23T14:23:14.925Z,101164.41
2022-08-23T14:25:51.636Z,101173.03
2022-08-23T14:28:21.719Z,101168.91
2022-08-23T14:30:59.320Z,101181.34
2022-08-23T14:33:49.745Z,101168.78
2022-08-23T14:36:23.588Z,101149.63
2022-08-23T14:39:03.233Z,101174.09
2022-08-23T14:41:34.445Z,101162.38
2022-08-23T14:44:15.838Z,101158.03
2022-08-23T14:46:52.088Z,101159.66
2022-08-23T14:49:41.007Z,101158.59
2022-08-23T14:52:19.034Z,101164.34
2022-08-23T14:54:55.177Z,101157.63
2022-08-23T14:57:26.097Z,101168.59
2022-08-23T15:00:25.150Z,101160.31
2022-08-23T15:03:17.772Z,101153.38
2022-08-23T15:06:18.115Z,101154.88
2022-08-23T15:15:10.854Z,101164.31
2022-08-23T15:18:05.657Z,101142.66
2022-08-23T15:21:03.171Z,101154.88
2022-08-23T15:23:42.829Z,101148.22
2022-08-23T15:26:33.021Z,101154.66
2022-08-23T15:32:32.523Z,101144.50
2022-08-23T15:35:12.829Z,101149.00
2022-08-23T15:38:13.781Z,101133.75
2022-08-23T15:40:55.257Z,101148.81
2022-08-23T15:43:35.302Z,101134.84
2022-08-23T15:46:21.045Z,101133.13
2022-08-23T15:51:54.777Z,101130.19
2022-08-23T15:54:25.402Z,101133.75
2022-08-23T15:57:14.046Z,101134.94
2022-08-23T15:59:51.086Z,101138.78
2022-08-23T16:03:13.983Z,101138.97
2022-08-23T16:05:46.821Z,101134.84
2022-08-23T16:08:35.554Z,101131.25
2022-08-23T16:11:17.405Z,101131.97
2022-08-23T16:14:03.728Z,101140.09
2022-08-23T16:16:41.624Z,101129.41
2022-08-23T16:19:16.858Z,101134.50
2022-08-23T16:21:48.738Z,101135.63
2022-08-23T16:24:22.483Z,101126.41
2022-08-23T16:27:02.320Z,101127.91
2022-08-23T16:29:39.096Z,101127.63
2022-08-23T16:32:13.109Z,101115.63
2022-08-23T16:34:45.181Z,101122.31
2022-08-23T16:37:18.238Z,101114.75
2022-08-23T16:39:54.786Z,101120.44
2022-08-23T16:42:29.707Z,101121.75
2022-08-23T16:45:02.144Z,101113.66
2022-08-23T16:47:38.477Z,101123.59
2022-08-23T16:50:28.577Z,101116.53
2022-08-23T16:53:10.926Z,101112.88
2022-08-23T16:55:49.749Z,101111.63
2022-08-23T16:58:23.250Z,101115.25
2022-08-23T17:00:56.356Z,101128.25
2022-08-23T17:03:28.712Z,101120.56
2022-08-23T17:06:04.183Z,101120.25
2022-08-23T17:08:47.818Z,101119.44
2022-08-23T17:11:20.147Z,101115.09
2022-08-23T17:14:09.956Z,101113.34
2022-08-23T17:16:45.739Z,101116.19
2022-08-23T17:19:16.424Z,101115.00
2022-08-23T17:21:58.038Z,101120.88
2022-08-23T17:24:33.713Z,101128.69
2022-08-23T17:27:05.522Z,101129.75
2022-08-23T17:29:37.455Z,101123.22
2022-08-23T17:32:10.961Z,101129.28
2022-08-23T17:34:42.840Z,101137.16
2022-08-23T17:37:35.254Z,101126.94
2022-08-23T17:40:09.975Z,101126.88
2022-08-23T17:42:49.363Z,101130.69
2022-08-23T17:45:20.905Z,101142.34
2022-08-23T17:47:59.096Z,101134.41
2022-08-23T17:50:37.829Z,101132.69
2022-08-23T17:53:18.853Z,101135.34
2022-08-23T17:56:10.391Z,101140.88
2022-08-23T17:58:50.240Z,101147.22
2022-08-23T18:01:20.728Z,101137.88
2022-08-23T18:03:54.304Z,101149.75
2022-08-23T18:06:39.756Z,101152.81
2022-08-23T18:09:10.447Z,101150.75
2022-08-23T18:11:39.515Z,101156.75
2022-08-23T18:14:14.207Z,101163.97
2022-08-23T18:16:44.108Z,101153.50
2022-08-23T18:19:24.889Z,101167.66
2022-08-23T18:21:58.592Z,101165.06
2022-08-23T18:24:32.447Z,101165.25
2022-08-23T18:27:27.433Z,101169.16
2022-08-23T18:30:00.557Z,101179.56
2022-08-23T18:32:29.046Z,101176.97
2022-08-23T18:35:06.990Z,101186.59
2022-08-23T18:37:38.260Z,101201.78
2022-08-23T18:40:29.821Z,101198.28
2022-08-23T18:43:10.715Z,101202.31
2022-08-23T18:45:45.045Z,101205.50
2022-08-23T18:48:19.693Z,101215.63
2022-08-23T18:50:53.502Z,101220.41
2022-08-23T18:53:33.916Z,101217.34
2022-08-23T18:56:14.656Z,101214.53
2022-08-23T18:58:51.283Z,101217.28
2022-08-23T19:01:36.527Z,101228.81
2022-08-23T19:04:19.251Z,101236.50
2022-08-23T19:06:54.856Z,101232.06
2022-08-23T19:09:25.685Z,101233.84
2022-08-23T19:12:02.593Z,101248.72
2022-08-23T19:14:35.995Z,101245.31
2022-08-23T19:17:18.727Z,101253.41
2022-08-23T19:19:56.098Z,101253.69
2022-08-23T19:22:38.016Z,101257.50
2022-08-23T19:25:11.696Z,101255.63
2022-08-23T19:27:52.692Z,101263.88
2022-08-23T19:30:22.999Z,101264.25
2022-08-23T19:32:55.367Z,101277.72
2022-08-23T19:35:25.818Z,101274.34
2022-08-23T19:38:00.368Z,101279.44
2022-08-23T19:40:32.544Z,101282.13
2022-08-23T19:43:09.012Z,101286.69
2022-08-23T19:45:41.175Z,101290.13
2022-08-23T19:48:21.122Z,101289.16
2022-08-23T19:50:58.766Z,101295.25
2022-08-23T19:53:27.168Z,101296.34
2022-08-23T19:56:02.097Z,101301.69
2022-08-23T19:58:36.837Z,101296.75
2022-08-23T20:01:23.328Z,101305.63
2022-08-23T20:04:02.994Z,101308.88
2022-08-23T20:06:39.067Z,101309.81
2022-08-23T20:09:27.099Z,101310.03
2022-08-23T20:12:07.096Z,101316.81
2022-08-23T20:14:53.543Z,101323.84
2022-08-23T20:17:27.543Z,101322.44
2022-08-23T20:20:00.656Z,101321.00
2022-08-23T20:23:01.516Z,101330.94
2022-08-23T20:25:32.422Z,101328.88
2022-08-23T20:28:07.846Z,101330.59
2022-08-23T20:30:43.412Z,101331.53
2022-08-23T20:33:17.146Z,101335.88
2022-08-23T20:35:57.053Z,101325.81
2022-08-23T20:38:34.228Z,101333.63
2022-08-23T20:41:09.216Z,101342.41
2022-08-23T20:43:49.759Z,101331.22
2022-08-23T20:46:20.821Z,101330.97
2022-08-23T20:48:52.213Z,101331.03
2022-08-23T20:51:28.134Z,101332.19
2022-08-23T20:54:05.684Z,101331.69
2022-08-23T20:56:44.426Z,101336.38
2022-08-23T20:59:17.475Z,101344.91
2022-08-23T21:01:51.656Z,101339.69
2022-08-23T21:04:34.825Z,101338.28
2022-08-23T21:07:09.885Z,101340.59
2022-08-23T21:09:47.467Z,101340.06
2022-08-23T21:12:24.461Z,101340.88
2022-08-23T21:15:00.658Z,101339.31
2022-08-23T21:17:44.064Z,101337.16
2022-08-23T21:20:16.593Z,101341.09
2022-08-23T21:22:46.171Z,101339.19
2022-08-23T21:25:23.000Z,101349.22
2022-08-23T21:28:05.711Z,101340.28
2022-08-23T21:30:43.731Z,101340.88
2022-08-23T21:33:23.751Z,101346.16
2022-08-23T21:36:00.067Z,101339.00
2022-08-23T21:38:33.007Z,101342.28
2022-08-23T21:41:09.299Z,101348.41
2022-08-23T21:43:41.005Z,101341.53
2022-08-23T21:46:11.088Z,101345.41
2022-08-23T21:48:39.105Z,101347.50
2022-08-23T21:51:09.478Z,101344.00
2022-08-23T21:53:42.030Z,101350.09
2022-08-23T21:56:24.055Z,101348.66
2022-08-23T21:59:04.808Z,101346.09
2022-08-23T22:01:37.179Z,101336.25
2022-08-23T22:04:13.251Z,101345.16
2022-08-23T22:06:49.331Z,101351.28
2022-08-23T22:09:27.946Z,101348.22
2022-08-23T22:12:00.809Z,101344.94
2022-08-23T22:14:37.782Z,101344.69
2022-08-23T22:17:08.836Z,101347.16
2022-08-23T22:19:49.381Z,101352.69
2022-08-23T22:22:20.586Z,101350.22
2022-08-23T22:24:59.394Z,101344.94
2022-08-23T22:27:32.309Z,101341.13
2022-08-23T22:30:09.130Z,101344.63
2022-08-23T22:32:42.135Z,101336.88
2022-08-23T22:35:20.490Z,101345.53
2022-08-23T22:38:12.657Z,101340.66
2022-08-23T22:41:01.434Z,101341.34
2022-08-23T22:43:42.098Z,101332.81
2022-08-23T22:46:21.467Z,101331.19
2022-08-23T22:48:59.517Z,101332.41
2022-08-23T22:51:38.867Z,101338.53
2022-08-23T22:54:15.628Z,101335.00
2022-08-23T22:56:54.283Z,101332.88
2022-08-23T22:59:45.427Z,101329.31
2022-08-23T23:02:16.845Z,101328.34
2022-08-23T23:04:46.344Z,101331.31
2022-08-23T23:07:47.115Z,101327.53
2022-08-23T23:10:21.402Z,101328.53
2022-08-23T23:12:56.324Z,101334.78
2022-08-23T23:15:26.910Z,101331.88
2022-08-23T23:17:54.507Z,101329.59
2022-08-23T23:20:40.642Z,101335.97
2022-08-23T23:23:23.518Z,101334.97
2022-08-23T23:25:54.083Z,101331.69
2022-08-23T23:28:28.234Z,101334.53
2022-08-23T23:30:59.638Z,101329.19
2022-08-23T23:33:36.366Z,101333.78
2022-08-23T23:36:04.095Z,101326.13
2022-08-23T23:38:45.319Z,101327.28
2022-08-23T23:41:13.897Z,101325.34
2022-08-23T23:43:44.670Z,101322.94
2022-08-23T23:46:15.080Z,101329.41
2022-08-23T23:48:51.532Z,101323.66
2022-08-23T23:51:23.219Z,101319.84
2022-08-23T23:54:01.042Z,101318.75
2022-08-23T23:56:32.839Z,101310.34
